createdAt,value
2018-12-11T00:00:38.906Z,82.41
2018-12-11T00:10:58.396Z,80.78
2018-12-11T00:21:18.135Z,80.43
2018-12-11T00:31:36.931Z,79.61
2018-12-11T00:41:55.986Z,77.55
2018-12-11T00:52:14.758Z,77.41
2018-12-11T01:02:33.842Z,77.77
2018-12-11T01:12:56.618Z,76.11
2018-12-11T01:23:16.131Z,78.11
2018-12-11T01:33:34.599Z,77.73
2018-12-11T01:43:53.808Z,77.91
2018-12-11T01:54:14.438Z,76.07
2018-12-11T02:04:33.171Z,79.14
2018-12-11T02:14:52.182Z,79.07
2018-12-11T02:25:11.585Z,76.49
2018-12-11T02:35:30.377Z,75.45
2018-12-11T02:45:49.176Z,76.04
2018-12-11T02:56:08.663Z,75.45
2018-12-11T03:06:27.854Z,74.59
2018-12-11T03:16:46.087Z,74.46
2018-12-11T03:27:05.819Z,74.75
2018-12-11T03:37:25.225Z,74.46
2018-12-11T03:47:43.830Z,79.13
2018-12-11T03:58:02.730Z,82.61
2018-12-11T04:08:21.770Z,78.62
2018-12-11T04:18:40.382Z,79.34
2018-12-11T04:29:00.130Z,80.85
2018-12-11T04:39:19.311Z,81.68
2018-12-11T04:49:37.575Z,84.76
2018-12-11T04:59:56.570Z,84.91
2018-12-11T05:10:15.395Z,83.15
2018-12-11T05:20:33.969Z,80.95
2018-12-11T05:30:52.601Z,81.83
2018-12-11T05:41:11.839Z,80.58
2018-12-11T05:51:31.108Z,79.62
2018-12-11T06:01:50.624Z,79.52
2018-12-11T06:12:09.270Z,79.57
2018-12-11T06:22:28.319Z,80.30
2018-12-11T06:32:47.184Z,81.54
2018-12-11T06:43:07.300Z,80.52
2018-12-11T06:53:27.753Z,78.76
2018-12-11T07:03:46.501Z,78.04
2018-12-11T07:14:06.252Z,78.77
2018-12-11T07:24:25.594Z,76.96
2018-12-11T07:34:47.190Z,76.11
2018-12-11T07:45:07.203Z,76.96
2018-12-11T07:55:26.693Z,76.96
2018-12-11T08:05:45.652Z,78.45
2018-12-11T08:16:04.942Z,78.98
2018-12-11T08:26:23.470Z,78.92
2018-12-11T08:36:43.009Z,80.95
2018-12-11T08:47:02.530Z,79.56
2018-12-11T08:57:21.450Z,81.34
2018-12-11T09:07:40.778Z,81.56
2018-12-11T09:17:59.190Z,82.36
2018-12-11T09:28:18.130Z,81.99
2018-12-11T09:38:37.583Z,83.81
2018-12-11T09:48:56.850Z,82.93
2018-12-11T09:59:16.229Z,80.50
2018-12-11T10:09:35.402Z,81.65
2018-12-11T10:19:53.920Z,83.56
2018-12-11T10:30:14.839Z,84.10
2018-12-11T10:40:33.699Z,81.89
2018-12-11T10:50:52.291Z,82.77
2018-12-11T11:01:21.855Z,82.80
2018-12-11T11:11:39.792Z,83.44
2018-12-11T11:21:58.420Z,82.88
2018-12-11T11:32:17.350Z,79.59
2018-12-11T11:42:36.520Z,79.65
2018-12-11T11:52:56.159Z,77.19
2018-12-11T12:03:15.973Z,76.01
2018-12-11T12:13:35.550Z,74.05
2018-12-11T12:23:54.531Z,75.30
2018-12-11T12:34:14.549Z,75.53
2018-12-11T12:44:34.381Z,77.21
2018-12-11T12:54:53.583Z,77.48
2018-12-11T13:05:12.612Z,77.83
2018-12-11T13:15:31.392Z,77.92
2018-12-11T13:25:50.572Z,77.80
2018-12-11T13:36:10.859Z,74.75
2018-12-11T13:46:30.279Z,73.19
2018-12-11T13:56:49.431Z,75.22
2018-12-11T14:07:10.784Z,76.49
2018-12-11T14:17:31.490Z,81.99
2018-12-11T14:27:59.781Z,81.20
2018-12-11T14:38:18.819Z,81.45
2018-12-11T14:48:38.980Z,80.02
2018-12-11T14:58:57.491Z,77.46
2018-12-11T15:09:34.710Z,79.18
2018-12-11T15:19:53.659Z,79.75
2018-12-11T15:30:12.919Z,81.56
2018-12-11T15:40:35.550Z,81.66
2018-12-11T15:50:54.319Z,77.87
2018-12-11T16:01:14.186Z,78.36
2018-12-11T16:11:33.803Z,78.07
2018-12-11T16:21:54.290Z,77.42
2018-12-11T16:32:14.861Z,77.32
2018-12-11T16:42:37.325Z,76.22
2018-12-11T16:52:56.770Z,76.02
2018-12-11T17:03:17.032Z,76.20
2018-12-11T17:13:37.400Z,75.40
2018-12-11T17:23:57.871Z,73.62
2018-12-11T17:34:17.992Z,73.64
2018-12-11T17:44:38.517Z,75.07
2018-12-11T17:54:59.033Z,74.50
2018-12-11T18:05:20.216Z,75.10
2018-12-11T18:15:41.014Z,76.07
2018-12-11T18:26:02.982Z,76.51
2018-12-11T18:36:23.743Z,76.66
2018-12-11T18:46:44.996Z,76.29
2018-12-11T18:57:08.683Z,79.70
2018-12-11T19:07:32.634Z,79.98
2018-12-11T19:17:58.598Z,80.95
2018-12-11T19:28:24.421Z,79.75
2018-12-11T19:38:46.208Z,80.50
2018-12-11T19:49:07.345Z,80.78
2018-12-11T19:59:32.072Z,80.38
2018-12-11T20:10:11.868Z,79.87
2018-12-11T20:20:36.635Z,80.22
2018-12-11T20:30:59.193Z,80.24
2018-12-11T20:41:44.881Z,82.23
2018-12-11T20:52:13.472Z,79.69
2018-12-11T21:02:40.882Z,80.78
2018-12-11T21:13:03.977Z,80.85
2018-12-11T21:23:25.245Z,79.40
2018-12-11T21:33:50.185Z,80.34
2018-12-11T21:44:10.186Z,80.04
2018-12-11T21:54:29.988Z,80.78
2018-12-11T22:04:50.780Z,80.00
2018-12-11T22:15:11.530Z,80.70
2018-12-11T22:25:31.072Z,79.26
2018-12-11T22:35:52.428Z,81.33
2018-12-11T22:46:12.659Z,81.81
2018-12-11T22:56:30.852Z,80.58
2018-12-11T23:06:50.659Z,82.16
2018-12-11T23:17:10.724Z,81.53
2018-12-11T23:27:29.368Z,83.04
2018-12-11T23:37:49.799Z,81.08
2018-12-11T23:48:08.543Z,80.56
2018-12-11T23:58:27.126Z,80.69
